Time;durP1;ratioP1;P1;durP2;ratioP2;P2;SDS_P1;SDS_P2;PMS_P1;PMS_P2;Temp;Humidity;BMP_temperature;BMP_pressure;BME280_temperature;BME280_humidity;BME280_pressure;Samples;Min_cycle;Max_cycle;Signal;HPM_P1;HPM_P2
2021/01/11 00:00:21;;;;;;;;;;;-1.40;99.90;;;;;;4888687;29;19907;-84
2021/01/11 00:02:49;;;;;;;;;;;-1.40;99.90;;;;;;4904050;29;19923;-83
2021/01/11 00:05:17;;;;;;;;;;;-1.50;99.90;;;;;;4904039;29;19914;-84
2021/01/11 00:07:45;;;;;;;;;;;-1.50;99.90;;;;;;4904112;29;19907;-84
2021/01/11 00:12:56;;;;;;;;;;;-1.60;99.90;;;;;;4940498;29;19913;-84
2021/01/11 00:15:25;;;;;;;;;;;-1.60;99.90;;;;;;4925751;29;19934;-83
2021/01/11 00:17:54;;;;;;;;;;;-1.50;99.90;;;;;;4941168;29;19923;-83
2021/01/11 00:20:22;;;;;;;;;;;-1.50;99.90;;;;;;4925578;29;19913;-85
2021/01/11 00:22:50;;;;;;;;;;;-1.50;99.90;;;;;;4910286;29;19919;-84
2021/01/11 00:25:18;;;;;;;;;;;-1.50;99.90;;;;;;4925438;29;19933;-85
2021/01/11 00:27:45;;;;;;;;;;;-1.40;99.90;;;;;;4922507;29;19937;-84
2021/01/11 00:30:14;;;;;;;;;;;-1.40;99.90;;;;;;4891383;29;19908;-85
2021/01/11 00:32:43;;;;;;;;;;;-1.40;99.90;;;;;;4907591;29;20355;-85
2021/01/11 00:35:10;;;;;;;;;;;-1.50;99.90;;;;;;4925853;29;19907;-84
2021/01/11 00:37:38;;;;;;;;;;;-1.50;99.90;;;;;;4910888;29;19907;-85
2021/01/11 00:40:07;;;;;;;;;;;-1.50;99.90;;;;;;4910867;29;19913;-83
2021/01/11 00:42:35;;;;;;;;;;;-1.40;99.90;;;;;;4909931;29;19924;-84
2021/01/11 00:45:06;;;;;;;;;;;-1.60;99.90;;;;;;4895190;29;19907;-84
2021/01/11 00:47:36;;;;;;;;;;;-1.50;99.90;;;;;;4910610;29;19907;-83
2021/01/11 00:50:05;;;;;;;;;;;-1.50;99.90;;;;;;4910027;29;19927;-84
2021/01/11 00:52:34;;;;;;;;;;;-1.50;99.90;;;;;;4893891;29;19908;-84
2021/01/11 00:55:02;;;;;;;;;;;-1.60;99.90;;;;;;4909692;29;19929;-84
2021/01/11 00:57:29;;;;;;;;;;;-1.60;99.90;;;;;;4893887;29;19927;-84
2021/01/11 01:00:05;;;;;;;;;;;-1.60;99.90;;;;;;4927231;29;20019;-84
2021/01/11 01:02:47;;;;;;;;;;;-1.60;99.90;;;;;;4908947;29;19923;-83
2021/01/11 01:05:16;;;;;;;;;;;-1.60;99.90;;;;;;4911282;29;19923;-83
2021/01/11 01:07:43;;;;;;;;;;;-1.60;99.90;;;;;;4899316;29;19942;-84
2021/01/11 01:10:11;;;;;;;;;;;-1.50;99.90;;;;;;4912475;29;19907;-82
2021/01/11 01:12:39;;;;;;;;;;;-1.60;99.90;;;;;;4912380;29;19929;-84
2021/01/11 01:15:08;;;;;;;;;;;-1.70;99.90;;;;;;4912998;29;19918;-83
2021/01/11 01:17:35;;;;;;;;;;;-1.60;99.90;;;;;;4912485;29;20462;-84
2021/01/11 01:20:03;;;;;;;;;;;-1.70;99.90;;;;;;4927504;29;19907;-84
2021/01/11 01:22:32;;;;;;;;;;;-1.70;99.90;;;;;;4944137;29;19907;-83
2021/01/11 01:24:59;;;;;;;;;;;-1.70;99.90;;;;;;4928746;29;19933;-83
2021/01/11 01:27:26;;;;;;;;;;;-1.70;99.90;;;;;;4913128;29;19933;-84
2021/01/11 01:29:54;;;;;;;;;;;-1.80;99.90;;;;;;4913003;29;19911;-83
2021/01/11 01:32:21;;;;;;;;;;;-1.80;99.90;;;;;;4928041;29;19907;-84
2021/01/11 01:34:49;;;;;;;;;;;-1.90;99.90;;;;;;4923386;29;19913;-83
2021/01/11 01:37:16;;;;;;;;;;;-1.90;99.90;;;;;;4912130;29;19922;-84
2021/01/11 01:39:44;;;;;;;;;;;-1.90;99.90;;;;;;4908147;29;19933;-83
2021/01/11 01:42:12;;;;;;;;;;;-1.90;99.90;;;;;;4906189;29;19907;-83
2021/01/11 01:44:39;;;;;;;;;;;-1.90;99.90;;;;;;4898013;29;19924;-83
2021/01/11 01:47:07;;;;;;;;;;;-2.00;99.90;;;;;;4910407;29;19934;-83
2021/01/11 01:49:35;;;;;;;;;;;-1.90;99.90;;;;;;4927290;29;19919;-84
2021/01/11 01:52:03;;;;;;;;;;;-1.90;99.90;;;;;;4943944;29;19907;-85
2021/01/11 01:54:31;;;;;;;;;;;-1.90;99.90;;;;;;4913024;29;19933;-84
2021/01/11 01:57:00;;;;;;;;;;;-1.90;99.90;;;;;;4913121;29;19913;-83
2021/01/11 01:59:28;;;;;;;;;;;-1.90;99.90;;;;;;4912944;29;19907;-83
2021/01/11 02:01:59;;;;;;;;;;;-2.00;99.90;;;;;;5217598;23;19918;-83
2021/01/11 02:04:26;;;;;;;;;;;-2.00;99.90;;;;;;4931366;29;19939;-83
2021/01/11 02:06:57;;;;;;;;;;;-1.90;99.90;;;;;;4931558;29;19933;-84
2021/01/11 02:09:32;;;;;;;;;;;-1.90;99.90;;;;;;4931012;29;19933;-83
2021/01/11 02:12:05;;;;;;;;;;;-2.00;99.90;;;;;;4962042;28;19918;-83
2021/01/11 02:14:40;;;;;;;;;;;-2.00;99.90;;;;;;5758049;23;19922;-84
2021/01/11 02:17:09;;;;;;;;;;;-2.00;99.90;;;;;;4908733;29;19992;-84
2021/01/11 02:20:06;;;;;;;;;;;-2.00;99.90;;;;;;4928107;29;19930;-82
2021/01/11 02:22:40;;;;;;;;;;;-1.90;99.90;;;;;;4913165;29;19913;-83
2021/01/11 02:25:29;;;;;;;;;;;-2.00;99.90;;;;;;4927256;29;19907;-84
2021/01/11 02:27:59;;;;;;;;;;;-2.10;99.90;;;;;;4911927;29;19914;-85
2021/01/11 02:30:37;;;;;;;;;;;-2.00;99.90;;;;;;4912454;29;19907;-85
2021/01/11 02:33:06;;;;;;;;;;;-2.00;99.90;;;;;;4912444;29;19914;-84
2021/01/11 02:35:48;;;;;;;;;;;-1.90;99.90;;;;;;4911826;29;19913;-85
2021/01/11 02:38:16;;;;;;;;;;;-1.90;99.90;;;;;;4927552;29;19913;-84
2021/01/11 02:40:44;;;;;;;;;;;-2.00;99.90;;;;;;4927301;29;19907;-84
2021/01/11 02:43:12;;;;;;;;;;;-1.90;99.90;;;;;;4927628;29;19906;-85
2021/01/11 02:45:41;;;;;;;;;;;-1.90;99.90;;;;;;4911875;29;19913;-84
2021/01/11 02:48:13;;;;;;;;;;;-1.90;99.90;;;;;;4927373;29;19918;-84
2021/01/11 02:50:45;;;;;;;;;;;-1.80;99.90;;;;;;4927137;29;19927;-83
2021/01/11 02:53:27;;;;;;;;;;;-1.80;99.90;;;;;;4927311;29;19933;-84
2021/01/11 02:55:56;;;;;;;;;;;-1.70;99.90;;;;;;4926686;29;19907;-85
2021/01/11 02:58:37;;;;;;;;;;;-1.70;99.90;;;;;;4942972;29;19913;-84
2021/01/11 03:01:06;;;;;;;;;;;-1.60;99.90;;;;;;4926989;29;19907;-84
2021/01/11 03:03:38;;;;;;;;;;;-1.60;99.90;;;;;;4911727;29;19907;-84
2021/01/11 03:06:06;;;;;;;;;;;-1.60;99.90;;;;;;4926589;29;19914;-84
2021/01/11 03:08:33;;;;;;;;;;;-1.60;99.90;;;;;;4927045;29;19913;-84
2021/01/11 03:11:01;;;;;;;;;;;-1.60;99.90;;;;;;4911650;29;19927;-83
2021/01/11 03:13:28;;;;;;;;;;;-1.60;99.90;;;;;;4926240;29;19933;-84
2021/01/11 03:15:56;;;;;;;;;;;-1.70;99.90;;;;;;4926746;29;19913;-84
2021/01/11 03:18:25;;;;;;;;;;;-1.70;99.90;;;;;;4926358;29;19927;-83
2021/01/11 03:20:52;;;;;;;;;;;-1.70;99.90;;;;;;4911566;29;19913;-82
2021/01/11 03:23:23;;;;;;;;;;;-1.70;99.90;;;;;;4911628;29;19937;-84
2021/01/11 03:25:50;;;;;;;;;;;-1.70;99.90;;;;;;4942280;29;19913;-84
2021/01/11 03:28:19;;;;;;;;;;;-1.70;99.90;;;;;;4911705;29;19913;-85
2021/01/11 03:30:46;;;;;;;;;;;-1.70;99.90;;;;;;4926966;29;19921;-83
2021/01/11 03:33:14;;;;;;;;;;;-1.70;99.90;;;;;;4926505;29;19923;-82
2021/01/11 03:35:42;;;;;;;;;;;-1.70;99.90;;;;;;4911161;29;19931;-83
2021/01/11 03:38:10;;;;;;;;;;;-1.80;99.90;;;;;;4905284;29;19923;-84
2021/01/11 03:40:37;;;;;;;;;;;-1.80;99.90;;;;;;4902506;29;19934;-84
2021/01/11 03:43:05;;;;;;;;;;;-1.80;99.90;;;;;;4924934;29;19907;-84
2021/01/11 03:45:32;;;;;;;;;;;-1.80;99.90;;;;;;4907791;29;19923;-84
2021/01/11 03:48:00;;;;;;;;;;;-1.80;99.90;;;;;;4908032;29;19927;-83
2021/01/11 03:50:27;;;;;;;;;;;-1.80;99.90;;;;;;4942318;29;19933;-83
2021/01/11 03:52:55;;;;;;;;;;;-1.90;99.90;;;;;;5080268;23;20777;-81
2021/01/11 03:55:23;;;;;;;;;;;-1.90;99.90;;;;;;4943974;29;19907;-84
2021/01/11 03:57:50;;;;;;;;;;;-1.90;99.90;;;;;;4929943;29;19910;-84
2021/01/11 04:00:19;;;;;;;;;;;-1.90;99.90;;;;;;5121191;23;19907;-84
2021/01/11 04:02:49;;;;;;;;;;;-2.00;99.90;;;;;;4926350;29;19913;-84
2021/01/11 04:05:16;;;;;;;;;;;-1.90;99.90;;;;;;5298565;23;19933;-82
2021/01/11 04:10:35;;;;;;;;;;;-1.90;99.90;;;;;;5761642;23;19930;-85
2021/01/11 04:13:02;;;;;;;;;;;-2.00;99.90;;;;;;4918065;29;19927;-83
2021/01/11 04:15:30;;;;;;;;;;;-2.00;99.90;;;;;;4923781;29;19927;-84
2021/01/11 04:17:57;;;;;;;;;;;-2.00;99.90;;;;;;4941090;29;19927;-83
2021/01/11 04:26:04;;;;;;;;;;;-1.90;99.90;;;;;;5362812;23;19913;-85
2021/01/11 04:28:32;;;;;;;;;;;-1.80;99.90;;;;;;4920992;29;19933;-84
2021/01/11 04:30:59;;;;;;;;;;;-1.80;99.90;;;;;;4922838;29;19919;-84
2021/01/11 04:33:28;;;;;;;;;;;-1.70;99.90;;;;;;4941096;29;19907;-84
2021/01/11 04:38:50;;;;;;;;;;;-1.70;99.90;;;;;;4817311;29;19909;-84
2021/01/11 04:41:21;;;;;;;;;;;-1.70;99.90;;;;;;4818516;29;19908;-85
2021/01/11 04:49:33;;;;;;;;;;;-1.60;99.90;;;;;;5502051;23;19907;-83
2021/01/11 04:52:01;;;;;;;;;;;-1.60;99.90;;;;;;4924659;29;19934;-83
2021/01/11 04:54:30;;;;;;;;;;;-1.50;99.90;;;;;;4922246;29;19929;-84
2021/01/11 04:57:00;;;;;;;;;;;-1.50;99.90;;;;;;4908489;29;19907;-83
2021/01/11 04:59:29;;;;;;;;;;;-1.50;99.90;;;;;;4918968;29;19922;-83
2021/01/11 05:01:58;;;;;;;;;;;-1.50;99.90;;;;;;4904814;29;19923;-83
2021/01/11 05:10:04;;;;;;;;;;;-1.50;99.90;;;;;;4966687;23;20255;-84
2021/01/11 05:12:33;;;;;;;;;;;-1.50;99.90;;;;;;4944476;28;19913;-83
2021/01/11 05:15:15;;;;;;;;;;;-1.40;99.90;;;;;;4928205;29;19906;-84
2021/01/11 05:17:43;;;;;;;;;;;-1.40;99.90;;;;;;4929161;29;19926;-83
2021/01/11 05:20:12;;;;;;;;;;;-1.40;99.90;;;;;;4931939;29;19933;-83
2021/01/11 05:22:40;;;;;;;;;;;-1.40;99.90;;;;;;4947318;29;19907;-83
2021/01/11 05:25:12;;;;;;;;;;;-1.30;99.90;;;;;;4931624;29;19913;-83
2021/01/11 05:27:40;;;;;;;;;;;-1.50;99.90;;;;;;4947254;29;19907;-84
2021/01/11 05:30:10;;;;;;;;;;;-1.50;99.90;;;;;;4964004;29;19906;-84
2021/01/11 05:32:38;;;;;;;;;;;-1.50;99.90;;;;;;4943345;29;19923;-84
2021/01/11 05:35:06;;;;;;;;;;;-1.50;99.90;;;;;;4928310;29;19913;-85
2021/01/11 05:37:38;;;;;;;;;;;-1.50;99.90;;;;;;4947452;29;19910;-84
2021/01/11 05:40:06;;;;;;;;;;;-1.40;99.90;;;;;;4932037;29;19913;-84
2021/01/11 05:42:34;;;;;;;;;;;-1.50;99.90;;;;;;4931799;29;19913;-85
2021/01/11 05:45:13;;;;;;;;;;;-1.50;99.90;;;;;;4931650;29;19926;-83
2021/01/11 05:48:14;;;;;;;;;;;-1.50;99.90;;;;;;4947556;29;19907;-83
2021/01/11 05:50:43;;;;;;;;;;;-1.50;99.90;;;;;;4856738;29;19926;-85
2021/01/11 05:59:06;;;;;;;;;;;-1.50;99.90;;;;;;5684856;23;19914;-84
2021/01/11 06:01:42;;;;;;;;;;;-1.50;99.90;;;;;;5244413;23;19907;-84
2021/01/11 06:04:19;;;;;;;;;;;-1.50;99.90;;;;;;4909875;29;19907;-85
2021/01/11 06:06:47;;;;;;;;;;;-1.50;99.90;;;;;;4909498;29;19907;-85
2021/01/11 06:12:11;;;;;;;;;;;-1.60;99.90;;;;;;4909653;29;19913;-83
2021/01/11 06:14:39;;;;;;;;;;;-1.70;99.90;;;;;;5765370;23;19928;-83
2021/01/11 06:17:07;;;;;;;;;;;-1.70;99.90;;;;;;4905417;29;19930;-85
2021/01/11 06:19:37;;;;;;;;;;;-1.80;99.90;;;;;;4890087;29;19907;-84
2021/01/11 06:22:04;;;;;;;;;;;-1.80;99.90;;;;;;4874779;29;19914;-84
2021/01/11 06:24:36;;;;;;;;;;;-1.80;99.90;;;;;;4890228;29;19938;-84
2021/01/11 06:27:15;;;;;;;;;;;-1.80;99.90;;;;;;4889003;29;19912;-83
2021/01/11 06:32:37;;;;;;;;;;;-1.80;99.90;;;;;;5016889;23;19914;-85
2021/01/11 06:35:11;;;;;;;;;;;-1.90;99.90;;;;;;4890992;29;19930;-83
2021/01/11 06:37:38;;;;;;;;;;;-1.70;99.90;;;;;;4877234;29;19928;-80
2021/01/11 06:40:11;;;;;;;;;;;-1.70;99.90;;;;;;4899222;29;19924;-79
2021/01/11 06:42:38;;;;;;;;;;;-1.70;99.90;;;;;;4898256;29;19927;-81
2021/01/11 06:45:09;;;;;;;;;;;-1.70;99.90;;;;;;4899541;29;19923;-81
2021/01/11 06:47:36;;;;;;;;;;;-1.70;99.90;;;;;;4867706;29;19924;-81
2021/01/11 06:50:07;;;;;;;;;;;-1.70;99.90;;;;;;4887722;29;19924;-84
2021/01/11 06:52:35;;;;;;;;;;;-1.60;99.90;;;;;;4874094;29;19915;-84
2021/01/11 06:55:09;;;;;;;;;;;-1.60;99.90;;;;;;4872924;29;19934;-83
2021/01/11 06:57:41;;;;;;;;;;;-1.50;99.90;;;;;;4873736;29;19934;-85
2021/01/11 07:00:09;;;;;;;;;;;-1.50;99.90;;;;;;4874517;29;19916;-84
2021/01/11 07:02:43;;;;;;;;;;;-1.50;99.90;;;;;;4886349;29;19914;-83
2021/01/11 07:05:25;;;;;;;;;;;-1.50;99.90;;;;;;4908218;29;19907;-84
2021/01/11 07:08:03;;;;;;;;;;;-1.50;99.90;;;;;;4889766;29;19907;-84
2021/01/11 07:10:32;;;;;;;;;;;-1.40;99.90;;;;;;4913401;29;19924;-85
2021/01/11 07:13:27;;;;;;;;;;;-1.40;99.90;;;;;;4906694;29;19928;-84
2021/01/11 07:16:16;;;;;;;;;;;-1.40;99.90;;;;;;4856033;29;19907;-83
2021/01/11 07:18:49;;;;;;;;;;;-1.30;99.90;;;;;;5100214;23;19915;-84
2021/01/11 07:21:17;;;;;;;;;;;-1.30;99.90;;;;;;4907558;29;19911;-84
2021/01/11 07:23:45;;;;;;;;;;;-1.30;99.90;;;;;;4906859;29;19929;-83
2021/01/11 07:26:14;;;;;;;;;;;-1.20;99.90;;;;;;4892284;29;19912;-84
2021/01/11 07:31:56;;;;;;;;;;;-1.30;99.90;;;;;;4897912;29;19915;-84
2021/01/11 07:34:25;;;;;;;;;;;-1.30;99.90;;;;;;4890100;29;19933;-82
2021/01/11 07:36:54;;;;;;;;;;;-1.20;99.90;;;;;;4905625;29;19914;-83
2021/01/11 07:39:30;;;;;;;;;;;-1.20;99.90;;;;;;4887765;29;19925;-86
2021/01/11 07:41:58;;;;;;;;;;;-1.20;99.90;;;;;;4872379;29;19908;-85
2021/01/11 07:44:26;;;;;;;;;;;-1.20;99.90;;;;;;4887438;29;19920;-83
2021/01/11 07:49:51;;;;;;;;;;;-1.20;99.90;;;;;;4904275;29;19924;-84
2021/01/11 07:52:21;;;;;;;;;;;-1.20;99.90;;;;;;4904691;29;19914;-85
2021/01/11 07:54:56;;;;;;;;;;;-1.20;99.90;;;;;;4881435;29;19943;-83
2021/01/11 07:57:26;;;;;;;;;;;-1.20;99.90;;;;;;4882995;29;19935;-85
2021/01/11 08:00:01;;;;;;;;;;;-1.10;99.90;;;;;;4890835;29;19934;-85
2021/01/11 08:02:29;;;;;;;;;;;-1.10;99.90;;;;;;4899824;29;19931;-83
2021/01/11 08:04:58;;;;;;;;;;;-1.00;99.90;;;;;;4876230;29;19923;-80
2021/01/11 08:07:26;;;;;;;;;;;-1.10;99.90;;;;;;4897837;29;19931;-81
2021/01/11 08:09:57;;;;;;;;;;;-1.00;99.90;;;;;;4875343;29;19908;-82
2021/01/11 08:12:25;;;;;;;;;;;-1.00;99.90;;;;;;4906438;29;19908;-84
2021/01/11 08:15:02;;;;;;;;;;;-1.00;99.90;;;;;;4906731;29;19914;-84
2021/01/11 08:17:31;;;;;;;;;;;-1.00;99.90;;;;;;4883865;29;20380;-83
2021/01/11 08:20:01;;;;;;;;;;;-0.90;99.90;;;;;;4885365;29;19933;-81
2021/01/11 08:22:28;;;;;;;;;;;-0.90;99.90;;;;;;4884117;29;19923;-83
2021/01/11 08:24:59;;;;;;;;;;;-1.00;99.90;;;;;;4886820;29;19930;-82
2021/01/11 08:27:30;;;;;;;;;;;-0.90;99.90;;;;;;4898671;29;19924;-83
2021/01/11 08:30:00;;;;;;;;;;;-0.90;99.90;;;;;;4873022;29;19933;-83
2021/01/11 08:32:27;;;;;;;;;;;-0.80;99.90;;;;;;4894310;29;19935;-83
2021/01/11 08:34:55;;;;;;;;;;;-0.80;99.90;;;;;;4883727;29;19923;-83
2021/01/11 08:37:32;;;;;;;;;;;-0.80;99.90;;;;;;4877930;29;19919;-83
2021/01/11 08:40:00;;;;;;;;;;;-0.70;99.90;;;;;;4883905;29;20338;-82
2021/01/11 08:42:29;;;;;;;;;;;-0.60;99.90;;;;;;4898952;29;19923;-84
2021/01/11 08:45:16;;;;;;;;;;;-0.60;99.90;;;;;;4897635;29;19930;-84
2021/01/11 08:47:51;;;;;;;;;;;-0.50;99.90;;;;;;4877717;29;19937;-83
2021/01/11 08:50:27;;;;;;;;;;;-0.40;99.90;;;;;;4905944;29;19924;-85
2021/01/11 08:52:59;;;;;;;;;;;-0.30;99.90;;;;;;4903672;29;19930;-83
2021/01/11 08:55:28;;;;;;;;;;;-0.20;99.90;;;;;;4891183;29;19923;-81
2021/01/11 08:57:56;;;;;;;;;;;-0.10;99.90;;;;;;4907725;29;19931;-83
2021/01/11 09:00:23;;;;;;;;;;;0.00;99.90;;;;;;4906950;29;19930;-83
2021/01/11 09:02:50;;;;;;;;;;;0.10;99.90;;;;;;4897747;29;19923;-82
2021/01/11 09:05:26;;;;;;;;;;;0.30;99.90;;;;;;4900272;29;19934;-82
2021/01/11 09:07:54;;;;;;;;;;;0.30;99.90;;;;;;4889880;29;19908;-85
2021/01/11 09:10:23;;;;;;;;;;;0.40;99.90;;;;;;4920158;29;19919;-84
2021/01/11 09:12:57;;;;;;;;;;;0.40;99.90;;;;;;4904495;29;19923;-84
2021/01/11 09:15:25;;;;;;;;;;;0.40;99.90;;;;;;4924148;29;19933;-85
2021/01/11 09:18:10;;;;;;;;;;;0.40;99.90;;;;;;4899253;29;19922;-84
2021/01/11 09:21:07;;;;;;;;;;;0.50;99.90;;;;;;4886278;29;19922;-84
2021/01/11 09:24:05;;;;;;;;;;;0.50;99.90;;;;;;4916543;29;19907;-84
2021/01/11 09:26:34;;;;;;;;;;;0.60;99.90;;;;;;4891494;29;19911;-83
2021/01/11 09:29:12;;;;;;;;;;;0.60;99.90;;;;;;4911393;29;19920;-84
2021/01/11 09:31:40;;;;;;;;;;;0.60;99.90;;;;;;4906753;29;19924;-84
2021/01/11 09:34:07;;;;;;;;;;;0.70;99.90;;;;;;4904580;29;19934;-83
2021/01/11 09:36:36;;;;;;;;;;;0.60;99.90;;;;;;4890196;29;19934;-83
2021/01/11 09:39:08;;;;;;;;;;;0.70;99.90;;;;;;4881388;29;20330;-82
2021/01/11 09:41:40;;;;;;;;;;;0.50;99.90;;;;;;4935990;29;19924;-84
2021/01/11 09:44:14;;;;;;;;;;;0.50;99.90;;;;;;4876537;29;19923;-84
2021/01/11 09:46:45;;;;;;;;;;;0.50;99.90;;;;;;4898603;29;19927;-84
2021/01/11 09:49:13;;;;;;;;;;;0.50;99.90;;;;;;4895556;29;19927;-85
2021/01/11 09:51:41;;;;;;;;;;;0.50;99.90;;;;;;4897172;29;19916;-85
2021/01/11 09:54:10;;;;;;;;;;;0.50;99.90;;;;;;4906658;29;19908;-84
2021/01/11 09:56:38;;;;;;;;;;;0.60;99.90;;;;;;4884475;29;19930;-84
2021/01/11 09:59:11;;;;;;;;;;;0.60;99.90;;;;;;4875055;29;19934;-84
2021/01/11 10:01:39;;;;;;;;;;;0.60;99.90;;;;;;4907757;29;19923;-84
2021/01/11 10:04:08;;;;;;;;;;;0.60;99.90;;;;;;4899547;29;19922;-84
2021/01/11 10:06:39;;;;;;;;;;;0.50;99.90;;;;;;4875287;29;19907;-83
2021/01/11 10:09:15;;;;;;;;;;;0.50;99.90;;;;;;4892813;29;19924;-84
2021/01/11 10:11:46;;;;;;;;;;;0.60;99.90;;;;;;4907753;29;19934;-82
2021/01/11 10:14:16;;;;;;;;;;;0.60;99.90;;;;;;4888386;29;19934;-83
2021/01/11 10:16:46;;;;;;;;;;;0.60;99.90;;;;;;4898630;29;19927;-83
2021/01/11 10:19:17;;;;;;;;;;;0.70;99.90;;;;;;4869643;29;19908;-82
2021/01/11 10:21:45;;;;;;;;;;;0.70;99.90;;;;;;4888467;29;19908;-83
2021/01/11 10:24:13;;;;;;;;;;;0.90;99.90;;;;;;4871963;29;19920;-84
2021/01/11 10:26:42;;;;;;;;;;;0.90;99.90;;;;;;4858131;29;19935;-83
2021/01/11 10:29:09;;;;;;;;;;;0.90;99.90;;;;;;4910095;29;19908;-84
2021/01/11 10:31:40;;;;;;;;;;;1.10;99.90;;;;;;4872892;29;19908;-83
2021/01/11 10:34:10;;;;;;;;;;;1.10;99.90;;;;;;4917982;29;19908;-84
2021/01/11 10:36:41;;;;;;;;;;;1.10;99.90;;;;;;4870620;29;19912;-85
2021/01/11 10:39:10;;;;;;;;;;;1.20;99.90;;;;;;4905885;29;19923;-81
2021/01/11 10:41:38;;;;;;;;;;;1.30;99.90;;;;;;4868021;29;19943;-84
2021/01/11 10:44:07;;;;;;;;;;;1.50;99.90;;;;;;4891134;29;19914;-84
2021/01/11 10:46:34;;;;;;;;;;;1.40;99.90;;;;;;4890625;29;19934;-83
2021/01/11 10:49:04;;;;;;;;;;;1.40;99.90;;;;;;4874855;29;19938;-82
2021/01/11 10:51:33;;;;;;;;;;;1.40;99.90;;;;;;4868861;29;20214;-81
2021/01/11 10:54:01;;;;;;;;;;;1.40;99.90;;;;;;4875793;29;19924;-81
2021/01/11 10:56:28;;;;;;;;;;;1.50;99.90;;;;;;4872939;29;19924;-83
2021/01/11 10:58:55;;;;;;;;;;;1.40;99.90;;;;;;4872490;29;19965;-82
2021/01/11 11:01:22;;;;;;;;;;;1.40;99.90;;;;;;4863107;29;20371;-82
2021/01/11 11:03:50;;;;;;;;;;;1.40;99.90;;;;;;4852155;29;19924;-82
2021/01/11 11:06:21;;;;;;;;;;;1.50;99.90;;;;;;4871068;29;19957;-80
2021/01/11 11:08:48;;;;;;;;;;;1.50;99.90;;;;;;4864826;29;19931;-82
2021/01/11 11:11:15;;;;;;;;;;;1.50;99.90;;;;;;4861748;29;19924;-80
2021/01/11 11:13:43;;;;;;;;;;;1.60;99.90;;;;;;4854931;29;20011;-82
2021/01/11 11:16:11;;;;;;;;;;;1.60;99.90;;;;;;4863020;29;19935;-80
2021/01/11 11:18:39;;;;;;;;;;;1.60;99.90;;;;;;4857710;29;19924;-81
2021/01/11 11:21:09;;;;;;;;;;;1.70;99.90;;;;;;4879316;29;19923;-80
2021/01/11 11:23:44;;;;;;;;;;;1.70;99.90;;;;;;4878916;29;19924;-81
2021/01/11 11:26:20;;;;;;;;;;;1.80;99.90;;;;;;4887572;29;19928;-81
2021/01/11 11:28:49;;;;;;;;;;;1.80;99.90;;;;;;4874613;29;19935;-79
2021/01/11 11:31:16;;;;;;;;;;;1.80;99.90;;;;;;4893052;29;19924;-81
2021/01/11 11:33:47;;;;;;;;;;;1.80;99.90;;;;;;4871745;29;19924;-82
2021/01/11 11:36:14;;;;;;;;;;;1.80;99.90;;;;;;4874119;29;20251;-81
2021/01/11 11:38:41;;;;;;;;;;;1.70;99.90;;;;;;4876423;29;19935;-79
2021/01/11 11:41:10;;;;;;;;;;;1.80;99.90;;;;;;4873734;29;19924;-79
2021/01/11 11:43:37;;;;;;;;;;;1.60;99.90;;;;;;4876067;29;20144;-81
2021/01/11 11:46:10;;;;;;;;;;;1.50;99.90;;;;;;4892349;29;19930;-79
2021/01/11 11:48:37;;;;;;;;;;;1.60;99.90;;;;;;4886568;29;19934;-79
2021/01/11 11:51:04;;;;;;;;;;;1.70;99.90;;;;;;4867094;29;19986;-81
2021/01/11 11:53:32;;;;;;;;;;;1.60;99.90;;;;;;4879293;29;19946;-80
2021/01/11 11:55:59;;;;;;;;;;;1.60;99.90;;;;;;4876267;29;20353;-79
2021/01/11 11:58:29;;;;;;;;;;;1.60;99.90;;;;;;4873631;29;19924;-81
2021/01/11 12:00:56;;;;;;;;;;;1.50;99.90;;;;;;4870232;29;19935;-80
2021/01/11 12:03:23;;;;;;;;;;;1.60;99.90;;;;;;4895294;29;19935;-81
2021/01/11 12:05:52;;;;;;;;;;;1.60;99.90;;;;;;4865466;29;19924;-83
2021/01/11 12:08:22;;;;;;;;;;;1.60;99.90;;;;;;4866536;29;19950;-83
2021/01/11 12:10:49;;;;;;;;;;;1.70;99.90;;;;;;4883159;29;19924;-81
2021/01/11 12:13:18;;;;;;;;;;;1.70;99.90;;;;;;4890396;29;19928;-84
2021/01/11 12:15:46;;;;;;;;;;;1.60;99.90;;;;;;4905207;29;19927;-83
2021/01/11 12:18:13;;;;;;;;;;;1.60;99.90;;;;;;4894015;29;20363;-83
2021/01/11 12:20:40;;;;;;;;;;;1.70;99.90;;;;;;4891865;29;20354;-81
2021/01/11 12:23:10;;;;;;;;;;;1.70;99.90;;;;;;4879064;29;19930;-82
2021/01/11 12:25:38;;;;;;;;;;;1.70;99.90;;;;;;4903455;29;19935;-84
2021/01/11 12:28:06;;;;;;;;;;;1.70;99.90;;;;;;4870302;29;19924;-82
2021/01/11 12:30:33;;;;;;;;;;;1.70;99.90;;;;;;4888336;29;19923;-82
2021/01/11 12:33:01;;;;;;;;;;;1.60;99.90;;;;;;4879392;29;19934;-82
2021/01/11 12:35:31;;;;;;;;;;;1.70;99.90;;;;;;4911805;29;19934;-83
2021/01/11 12:38:02;;;;;;;;;;;1.70;99.90;;;;;;4888357;29;19933;-80
2021/01/11 12:40:32;;;;;;;;;;;1.60;99.90;;;;;;4881392;29;19928;-80
2021/01/11 12:42:59;;;;;;;;;;;1.60;99.90;;;;;;4896146;29;19934;-79
2021/01/11 12:45:26;;;;;;;;;;;1.60;99.90;;;;;;4866114;29;19934;-80
2021/01/11 12:47:58;;;;;;;;;;;1.60;99.90;;;;;;4897433;29;19923;-84
2021/01/11 12:50:27;;;;;;;;;;;1.50;99.90;;;;;;4901986;29;20000;-83
2021/01/11 12:52:57;;;;;;;;;;;1.60;99.90;;;;;;4887770;29;19913;-83
2021/01/11 12:55:24;;;;;;;;;;;1.50;99.90;;;;;;4898514;29;19938;-84
2021/01/11 12:57:51;;;;;;;;;;;1.60;99.90;;;;;;4906530;29;19934;-81
2021/01/11 13:00:19;;;;;;;;;;;1.60;99.90;;;;;;4920233;29;19981;-82
2021/01/11 13:02:49;;;;;;;;;;;1.70;99.90;;;;;;4879957;29;19923;-82
2021/01/11 13:05:17;;;;;;;;;;;1.80;99.90;;;;;;4880284;29;20014;-82
2021/01/11 13:07:45;;;;;;;;;;;1.90;99.90;;;;;;4902399;29;19923;-83
2021/01/11 13:10:14;;;;;;;;;;;2.00;99.90;;;;;;4887220;29;19923;-82
2021/01/11 13:12:41;;;;;;;;;;;2.00;99.90;;;;;;4889078;29;19929;-82
2021/01/11 13:15:09;;;;;;;;;;;1.90;99.90;;;;;;4895051;29;19923;-83
2021/01/11 13:17:41;;;;;;;;;;;1.80;99.90;;;;;;4894571;29;19923;-81
2021/01/11 13:20:09;;;;;;;;;;;1.70;99.90;;;;;;4901963;29;19927;-80
2021/01/11 13:22:38;;;;;;;;;;;1.70;99.90;;;;;;4906897;29;19923;-81
2021/01/11 13:25:08;;;;;;;;;;;1.70;99.90;;;;;;4891691;29;19935;-82
2021/01/11 13:27:35;;;;;;;;;;;1.70;99.90;;;;;;4896179;29;19924;-82
2021/01/11 13:30:02;;;;;;;;;;;1.70;99.90;;;;;;4907999;29;19946;-82
2021/01/11 13:32:30;;;;;;;;;;;1.80;99.90;;;;;;4886147;29;19927;-81
2021/01/11 13:34:57;;;;;;;;;;;1.90;99.90;;;;;;4874834;29;19927;-81
2021/01/11 13:37:24;;;;;;;;;;;1.80;99.90;;;;;;4902234;29;20392;-81
2021/01/11 13:39:54;;;;;;;;;;;1.80;99.90;;;;;;4881925;29;19938;-81
2021/01/11 13:42:25;;;;;;;;;;;1.80;99.90;;;;;;4906056;29;19923;-83
2021/01/11 13:44:52;;;;;;;;;;;1.80;99.90;;;;;;4929927;29;19924;-82
2021/01/11 13:51:24;;;;;;;;;;;2.00;99.90;;;;;;4887413;29;19930;-82
2021/01/11 13:53:51;;;;;;;;;;;2.00;99.90;;;;;;4877893;29;19931;-84
2021/01/11 13:56:23;;;;;;;;;;;2.00;99.90;;;;;;4895044;29;19923;-83
2021/01/11 13:58:55;;;;;;;;;;;1.90;99.90;;;;;;4909973;29;19936;-82
2021/01/11 14:01:22;;;;;;;;;;;1.90;99.90;;;;;;4891559;29;19938;-81
2021/01/11 14:03:49;;;;;;;;;;;1.90;99.90;;;;;;4868084;29;19923;-82
2021/01/11 14:06:24;;;;;;;;;;;1.90;99.90;;;;;;4885636;29;19930;-81
2021/01/11 14:08:51;;;;;;;;;;;1.90;99.90;;;;;;4913181;29;19924;-82
2021/01/11 14:11:19;;;;;;;;;;;1.90;99.90;;;;;;4897181;29;19934;-81
2021/01/11 14:13:46;;;;;;;;;;;1.90;99.90;;;;;;4907996;29;19934;-82
2021/01/11 14:16:14;;;;;;;;;;;1.90;99.90;;;;;;4912290;29;19920;-82
2021/01/11 14:18:42;;;;;;;;;;;1.90;99.90;;;;;;4890344;29;19933;-83
2021/01/11 14:21:10;;;;;;;;;;;1.90;99.90;;;;;;4899273;29;19912;-82
2021/01/11 14:23:38;;;;;;;;;;;2.00;99.90;;;;;;4908671;29;19934;-82
2021/01/11 14:26:05;;;;;;;;;;;1.90;99.90;;;;;;4917575;29;19935;-81
2021/01/11 14:28:33;;;;;;;;;;;2.00;99.90;;;;;;4905497;29;19939;-81
2021/01/11 14:31:01;;;;;;;;;;;2.00;99.90;;;;;;4902490;29;20255;-82
2021/01/11 14:33:31;;;;;;;;;;;2.10;99.90;;;;;;4908934;29;19924;-82
2021/01/11 14:35:59;;;;;;;;;;;2.10;99.90;;;;;;4891533;29;19923;-82
2021/01/11 14:38:26;;;;;;;;;;;2.10;99.90;;;;;;4904936;29;19924;-82
2021/01/11 14:40:53;;;;;;;;;;;2.10;99.90;;;;;;4889926;29;19923;-81
2021/01/11 14:43:26;;;;;;;;;;;2.10;99.90;;;;;;4895745;29;19930;-82
2021/01/11 14:45:54;;;;;;;;;;;2.10;99.90;;;;;;4878747;29;20268;-83
2021/01/11 14:48:21;;;;;;;;;;;2.10;99.90;;;;;;4904673;29;19949;-81
2021/01/11 14:50:53;;;;;;;;;;;2.10;99.90;;;;;;4903724;29;19923;-83
2021/01/11 14:53:20;;;;;;;;;;;2.10;99.90;;;;;;4896914;29;19924;-82
2021/01/11 14:55:48;;;;;;;;;;;2.10;99.90;;;;;;4886996;29;19933;-81
2021/01/11 14:58:17;;;;;;;;;;;2.00;99.90;;;;;;4902936;29;19931;-84
2021/01/11 15:00:45;;;;;;;;;;;2.00;99.90;;;;;;4873653;29;19934;-82
2021/01/11 15:03:12;;;;;;;;;;;2.00;99.90;;;;;;4898341;29;19923;-83
2021/01/11 15:05:40;;;;;;;;;;;2.00;99.90;;;;;;4893450;29;19927;-83
2021/01/11 15:08:08;;;;;;;;;;;2.00;99.90;;;;;;4913246;29;19945;-83
2021/01/11 15:10:36;;;;;;;;;;;1.90;99.90;;;;;;4887260;29;19924;-83
2021/01/11 15:13:03;;;;;;;;;;;2.00;99.90;;;;;;4911779;29;19934;-82
2021/01/11 15:15:31;;;;;;;;;;;1.90;99.90;;;;;;4879022;29;19923;-82
2021/01/11 15:18:00;;;;;;;;;;;1.80;99.90;;;;;;4887056;29;19924;-81
2021/01/11 15:20:27;;;;;;;;;;;1.90;99.90;;;;;;4893648;29;19923;-82
2021/01/11 15:22:55;;;;;;;;;;;2.00;99.90;;;;;;4893476;29;19934;-83
2021/01/11 15:25:23;;;;;;;;;;;1.90;99.90;;;;;;4880991;29;19927;-83